Accueil
METAR-TAF:

METAR-TAF

Aéroports :

Bückeburg, Allemagne

latitude: 52-17N, longitude: 009-05E, altitude: 70 m

Observation

Le bulletin a été fait il y a 30 minutes, à 01:20 UTC
Vent 10 kt de sud
Température 17°C
Humidité 68%
Pression 1020 hPa
Visibilité 10 km ou plus
Quelques nuages à une hauteur de 31000 ft

METAR: ETHB 170120Z 19010KT 9999 FEW310 17/11 Q1020 BLU+

Heure: 03:50 (01:50 UTC)

Prévision

Le bulletin a été fait il y a 9 heures et 40 minutes, à 16:10 UTC
Prévision valable du 16 à 17 UTC au 17 à 02 UTC
Vent 10 kt de sud
Visibilité: 1630 m
Quelques nuages à une hauteur de 30000 ft

TAF: ETHB 161610Z 1617/1702 18010KT 9999 NSW FEW300 CANCEL 1630

Observations et prévisions météorologiques de plus de 4000 aéroports (messages METAR et TAF).

Les stations disponibles sont représentées par des disques jaunes et rouges sur la carte.

Passer la souris dessus pour voir le nom de la station.

Cliquer dessus pour voir les observations et prévisions météorologiques.

Pour changer de carte: cliquez sur les boutons verts avec une croix noire pour zoomer, sur le bouton vert avec un tiret pour effectuer un zoom arrière, ou sur les flèches vertes pour les cartes adjacentes.


METAR-TAF: